sensor_id;sensor_type;location;lat;lon;timestamp;P1;durP1;ratioP1;P2;durP2;ratioP2
6217;SDS011;3142;48.206;11.550;2022-11-25T00:02:02;4.67;;;3.20;;
6217;SDS011;3142;48.206;11.550;2022-11-25T00:04:28;7.17;;;3.47;;
6217;SDS011;3142;48.206;11.550;2022-11-25T00:07:00;5.00;;;3.13;;
6217;SDS011;3142;48.206;11.550;2022-11-25T00:09:27;4.43;;;3.20;;
6217;SDS011;3142;48.206;11.550;2022-11-25T00:11:53;5.70;;;2.87;;
6217;SDS011;3142;48.206;11.550;2022-11-25T00:14:20;4.90;;;3.00;;
6217;SDS011;3142;48.206;11.550;2022-11-25T00:16:46;6.07;;;3.40;;
6217;SDS011;3142;48.206;11.550;2022-11-25T00:19:14;6.73;;;4.60;;
6217;SDS011;3142;48.206;11.550;2022-11-25T00:21:41;7.63;;;4.00;;
6217;SDS011;3142;48.206;11.550;2022-11-25T00:24:08;8.13;;;3.40;;
6217;SDS011;3142;48.206;11.550;2022-11-25T00:26:38;5.37;;;3.33;;
6217;SDS011;3142;48.206;11.550;2022-11-25T00:29:05;4.40;;;3.20;;
6217;SDS011;3142;48.206;11.550;2022-11-25T00:31:34;6.03;;;3.60;;
6217;SDS011;3142;48.206;11.550;2022-11-25T00:34:02;6.63;;;3.20;;
6217;SDS011;3142;48.206;11.550;2022-11-25T00:36:31;3.47;;;2.20;;
6217;SDS011;3142;48.206;11.550;2022-11-25T00:38:59;4.13;;;2.73;;
6217;SDS011;3142;48.206;11.550;2022-11-25T00:41:27;3.27;;;2.70;;
6217;SDS011;3142;48.206;11.550;2022-11-25T00:44:13;3.77;;;2.73;;
6217;SDS011;3142;48.206;11.550;2022-11-25T00:47:00;5.90;;;2.63;;
6217;SDS011;3142;48.206;11.550;2022-11-25T00:49:27;3.13;;;2.67;;
6217;SDS011;3142;48.206;11.550;2022-11-25T00:51:55;5.07;;;2.47;;
6217;SDS011;3142;48.206;11.550;2022-11-25T00:54:22;4.23;;;2.90;;
6217;SDS011;3142;48.206;11.550;2022-11-25T00:56:48;2.63;;;1.93;;
6217;SDS011;3142;48.206;11.550;2022-11-25T00:59:15;3.57;;;2.53;;
6217;SDS011;3142;48.206;11.550;2022-11-25T01:01:41;3.13;;;2.43;;
6217;SDS011;3142;48.206;11.550;2022-11-25T01:04:08;2.97;;;2.17;;
6217;SDS011;3142;48.206;11.550;2022-11-25T01:06:35;3.60;;;2.60;;
6217;SDS011;3142;48.206;11.550;2022-11-25T01:09:04;2.90;;;2.60;;
6217;SDS011;3142;48.206;11.550;2022-11-25T01:11:31;5.23;;;2.60;;
6217;SDS011;3142;48.206;11.550;2022-11-25T01:13:58;5.33;;;2.77;;
6217;SDS011;3142;48.206;11.550;2022-11-25T01:16:25;5.33;;;3.10;;
6217;SDS011;3142;48.206;11.550;2022-11-25T01:18:52;7.07;;;3.50;;
6217;SDS011;3142;48.206;11.550;2022-11-25T01:21:19;4.73;;;3.10;;
6217;SDS011;3142;48.206;11.550;2022-11-25T01:23:47;5.53;;;3.13;;
6217;SDS011;3142;48.206;11.550;2022-11-25T01:26:16;4.37;;;2.93;;
6217;SDS011;3142;48.206;11.550;2022-11-25T01:28:44;3.80;;;3.30;;
6217;SDS011;3142;48.206;11.550;2022-11-25T01:31:12;5.23;;;3.37;;
6217;SDS011;3142;48.206;11.550;2022-11-25T01:33:41;4.70;;;3.63;;
6217;SDS011;3142;48.206;11.550;2022-11-25T01:36:08;4.40;;;3.50;;
6217;SDS011;3142;48.206;11.550;2022-11-25T01:38:36;6.70;;;3.70;;
6217;SDS011;3142;48.206;11.550;2022-11-25T01:41:04;4.73;;;3.17;;
6217;SDS011;3142;48.206;11.550;2022-11-25T01:43:33;5.57;;;4.20;;
6217;SDS011;3142;48.206;11.550;2022-11-25T01:46:01;10.23;;;5.47;;
6217;SDS011;3142;48.206;11.550;2022-11-25T01:48:34;9.40;;;5.87;;
6217;SDS011;3142;48.206;11.550;2022-11-25T01:51:04;7.20;;;5.10;;
6217;SDS011;3142;48.206;11.550;2022-11-25T01:53:37;7.30;;;5.20;;
6217;SDS011;3142;48.206;11.550;2022-11-25T01:56:03;7.27;;;5.37;;
6217;SDS011;3142;48.206;11.550;2022-11-25T01:58:31;6.27;;;4.80;;
6217;SDS011;3142;48.206;11.550;2022-11-25T02:01:01;7.13;;;5.33;;
6217;SDS011;3142;48.206;11.550;2022-11-25T02:03:28;6.47;;;4.43;;
6217;SDS011;3142;48.206;11.550;2022-11-25T02:06:01;8.63;;;5.20;;
6217;SDS011;3142;48.206;11.550;2022-11-25T02:08:35;8.57;;;5.10;;
6217;SDS011;3142;48.206;11.550;2022-11-25T02:11:02;6.77;;;4.83;;
6217;SDS011;3142;48.206;11.550;2022-11-25T02:13:29;6.10;;;4.93;;
6217;SDS011;3142;48.206;11.550;2022-11-25T02:15:59;6.63;;;4.30;;
6217;SDS011;3142;48.206;11.550;2022-11-25T02:18:25;6.00;;;4.53;;
6217;SDS011;3142;48.206;11.550;2022-11-25T02:20:52;6.03;;;4.37;;
6217;SDS011;3142;48.206;11.550;2022-11-25T02:23:22;5.83;;;4.20;;
6217;SDS011;3142;48.206;11.550;2022-11-25T02:25:58;6.00;;;3.60;;
6217;SDS011;3142;48.206;11.550;2022-11-25T02:28:26;4.53;;;3.60;;
6217;SDS011;3142;48.206;11.550;2022-11-25T02:30:54;6.63;;;4.30;;
6217;SDS011;3142;48.206;11.550;2022-11-25T02:33:21;4.77;;;3.23;;
6217;SDS011;3142;48.206;11.550;2022-11-25T02:35:49;5.37;;;3.80;;
6217;SDS011;3142;48.206;11.550;2022-11-25T02:38:18;23.77;;;13.30;;
6217;SDS011;3142;48.206;11.550;2022-11-25T02:40:48;135.93;;;60.07;;
6217;SDS011;3142;48.206;11.550;2022-11-25T02:43:19;46.27;;;25.17;;
6217;SDS011;3142;48.206;11.550;2022-11-25T02:45:48;13.87;;;7.77;;
6217;SDS011;3142;48.206;11.550;2022-11-25T02:48:20;4.70;;;3.67;;
6217;SDS011;3142;48.206;11.550;2022-11-25T02:50:47;7.77;;;5.03;;
6217;SDS011;3142;48.206;11.550;2022-11-25T02:53:14;6.87;;;3.80;;
6217;SDS011;3142;48.206;11.550;2022-11-25T02:55:41;40.77;;;25.10;;
6217;SDS011;3142;48.206;11.550;2022-11-25T02:58:07;77.33;;;47.23;;
6217;SDS011;3142;48.206;11.550;2022-11-25T03:00:35;37.37;;;23.70;;
6217;SDS011;3142;48.206;11.550;2022-11-25T03:03:02;12.57;;;8.37;;
6217;SDS011;3142;48.206;11.550;2022-11-25T03:05:29;6.43;;;5.10;;
6217;SDS011;3142;48.206;11.550;2022-11-25T03:07:56;5.23;;;4.03;;
6217;SDS011;3142;48.206;11.550;2022-11-25T03:10:22;5.43;;;4.23;;
6217;SDS011;3142;48.206;11.550;2022-11-25T03:12:49;4.53;;;3.27;;
6217;SDS011;3142;48.206;11.550;2022-11-25T03:15:15;6.50;;;3.70;;
6217;SDS011;3142;48.206;11.550;2022-11-25T03:17:43;20.97;;;12.50;;
6217;SDS011;3142;48.206;11.550;2022-11-25T03:20:10;71.83;;;42.67;;
6217;SDS011;3142;48.206;11.550;2022-11-25T03:22:39;43.00;;;25.20;;
6217;SDS011;3142;48.206;11.550;2022-11-25T03:25:06;91.43;;;43.47;;
6217;SDS011;3142;48.206;11.550;2022-11-25T03:27:33;47.77;;;25.07;;
6217;SDS011;3142;48.206;11.550;2022-11-25T03:30:00;17.10;;;8.27;;
6217;SDS011;3142;48.206;11.550;2022-11-25T03:32:28;7.17;;;4.57;;
6217;SDS011;3142;48.206;11.550;2022-11-25T03:34:56;4.23;;;3.73;;
6217;SDS011;3142;48.206;11.550;2022-11-25T03:37:22;5.83;;;4.17;;
6217;SDS011;3142;48.206;11.550;2022-11-25T03:39:49;4.00;;;3.60;;
6217;SDS011;3142;48.206;11.550;2022-11-25T03:42:15;4.47;;;3.57;;
6217;SDS011;3142;48.206;11.550;2022-11-25T03:44:42;6.13;;;3.90;;
6217;SDS011;3142;48.206;11.550;2022-11-25T03:47:08;6.00;;;4.13;;
6217;SDS011;3142;48.206;11.550;2022-11-25T03:49:35;6.23;;;4.40;;
6217;SDS011;3142;48.206;11.550;2022-11-25T03:52:03;4.90;;;3.67;;
6217;SDS011;3142;48.206;11.550;2022-11-25T03:54:29;6.97;;;4.20;;
6217;SDS011;3142;48.206;11.550;2022-11-25T03:56:56;4.40;;;4.00;;
6217;SDS011;3142;48.206;11.550;2022-11-25T03:59:22;4.57;;;3.93;;
6217;SDS011;3142;48.206;11.550;2022-11-25T04:01:49;5.97;;;4.40;;
6217;SDS011;3142;48.206;11.550;2022-11-25T04:04:15;4.77;;;3.87;;
6217;SDS011;3142;48.206;11.550;2022-11-25T04:06:42;5.43;;;4.50;;
6217;SDS011;3142;48.206;11.550;2022-11-25T04:09:10;6.00;;;4.13;;
6217;SDS011;3142;48.206;11.550;2022-11-25T04:11:37;5.40;;;3.80;;
6217;SDS011;3142;48.206;11.550;2022-11-25T04:14:20;8.37;;;4.43;;
6217;SDS011;3142;48.206;11.550;2022-11-25T04:16:47;7.57;;;4.87;;
6217;SDS011;3142;48.206;11.550;2022-11-25T04:19:13;6.97;;;4.47;;
6217;SDS011;3142;48.206;11.550;2022-11-25T04:21:40;6.60;;;4.23;;
6217;SDS011;3142;48.206;11.550;2022-11-25T04:24:07;5.17;;;4.33;;
6217;SDS011;3142;48.206;11.550;2022-11-25T04:26:35;6.30;;;4.33;;
6217;SDS011;3142;48.206;11.550;2022-11-25T04:29:01;7.00;;;4.70;;
6217;SDS011;3142;48.206;11.550;2022-11-25T04:31:28;6.50;;;4.23;;
6217;SDS011;3142;48.206;11.550;2022-11-25T04:33:55;6.47;;;4.40;;
6217;SDS011;3142;48.206;11.550;2022-11-25T04:36:21;5.90;;;4.37;;
6217;SDS011;3142;48.206;11.550;2022-11-25T04:38:48;5.97;;;4.00;;
6217;SDS011;3142;48.206;11.550;2022-11-25T04:41:14;6.30;;;4.40;;
6217;SDS011;3142;48.206;11.550;2022-11-25T04:43:42;6.67;;;4.40;;
6217;SDS011;3142;48.206;11.550;2022-11-25T04:46:09;5.00;;;4.23;;
6217;SDS011;3142;48.206;11.550;2022-11-25T04:48:41;9.03;;;4.67;;
6217;SDS011;3142;48.206;11.550;2022-11-25T04:51:07;6.23;;;4.20;;
6217;SDS011;3142;48.206;11.550;2022-11-25T04:53:34;5.43;;;4.10;;
6217;SDS011;3142;48.206;11.550;2022-11-25T04:56:00;5.27;;;3.87;;
6217;SDS011;3142;48.206;11.550;2022-11-25T04:58:27;4.57;;;4.13;;
6217;SDS011;3142;48.206;11.550;2022-11-25T05:01:12;6.70;;;3.90;;
6217;SDS011;3142;48.206;11.550;2022-11-25T05:03:39;6.33;;;4.10;;
6217;SDS011;3142;48.206;11.550;2022-11-25T05:06:05;6.40;;;4.10;;
6217;SDS011;3142;48.206;11.550;2022-11-25T05:08:32;5.27;;;4.03;;
6217;SDS011;3142;48.206;11.550;2022-11-25T05:10:59;7.13;;;4.13;;
6217;SDS011;3142;48.206;11.550;2022-11-25T05:13:26;5.33;;;3.47;;
6217;SDS011;3142;48.206;11.550;2022-11-25T05:15:52;4.73;;;3.50;;
6217;SDS011;3142;48.206;11.550;2022-11-25T05:18:20;6.73;;;3.83;;
6217;SDS011;3142;48.206;11.550;2022-11-25T05:20:47;4.80;;;3.47;;
6217;SDS011;3142;48.206;11.550;2022-11-25T05:23:13;4.17;;;3.13;;
6217;SDS011;3142;48.206;11.550;2022-11-25T05:25:40;4.77;;;3.43;;
6217;SDS011;3142;48.206;11.550;2022-11-25T05:28:06;5.33;;;3.80;;
6217;SDS011;3142;48.206;11.550;2022-11-25T05:30:32;4.00;;;2.70;;
6217;SDS011;3142;48.206;11.550;2022-11-25T05:32:59;2.90;;;2.60;;
6217;SDS011;3142;48.206;11.550;2022-11-25T05:35:27;2.67;;;2.47;;
6217;SDS011;3142;48.206;11.550;2022-11-25T05:37:53;2.37;;;1.90;;
6217;SDS011;3142;48.206;11.550;2022-11-25T05:40:20;4.70;;;2.23;;
6217;SDS011;3142;48.206;11.550;2022-11-25T05:42:46;4.50;;;3.43;;
6217;SDS011;3142;48.206;11.550;2022-11-25T05:45:13;6.33;;;4.37;;
6217;SDS011;3142;48.206;11.550;2022-11-25T05:47:39;3.10;;;2.70;;
6217;SDS011;3142;48.206;11.550;2022-11-25T05:50:06;2.30;;;1.90;;
6217;SDS011;3142;48.206;11.550;2022-11-25T05:52:34;2.50;;;2.10;;
6217;SDS011;3142;48.206;11.550;2022-11-25T05:55:01;2.77;;;2.30;;
6217;SDS011;3142;48.206;11.550;2022-11-25T05:57:27;4.20;;;2.63;;
6217;SDS011;3142;48.206;11.550;2022-11-25T05:59:54;5.50;;;2.20;;
6217;SDS011;3142;48.206;11.550;2022-11-25T06:02:20;3.13;;;2.00;;
6217;SDS011;3142;48.206;11.550;2022-11-25T06:04:47;6.40;;;4.27;;
6217;SDS011;3142;48.206;11.550;2022-11-25T06:07:13;2.70;;;2.07;;
6217;SDS011;3142;48.206;11.550;2022-11-25T06:09:41;2.70;;;2.10;;
6217;SDS011;3142;48.206;11.550;2022-11-25T06:12:08;4.63;;;2.50;;
6217;SDS011;3142;48.206;11.550;2022-11-25T06:14:34;4.43;;;2.00;;
6217;SDS011;3142;48.206;11.550;2022-11-25T06:17:01;2.00;;;1.80;;
6217;SDS011;3142;48.206;11.550;2022-11-25T06:19:28;2.40;;;1.80;;
6217;SDS011;3142;48.206;11.550;2022-11-25T06:21:55;2.77;;;2.10;;
6217;SDS011;3142;48.206;11.550;2022-11-25T06:24:21;3.93;;;2.13;;
6217;SDS011;3142;48.206;11.550;2022-11-25T06:26:49;4.57;;;2.27;;
6217;SDS011;3142;48.206;11.550;2022-11-25T06:29:16;3.57;;;2.50;;
6217;SDS011;3142;48.206;11.550;2022-11-25T06:31:42;2.87;;;2.20;;
6217;SDS011;3142;48.206;11.550;2022-11-25T06:34:08;5.63;;;2.10;;
6217;SDS011;3142;48.206;11.550;2022-11-25T06:36:35;3.43;;;2.03;;
6217;SDS011;3142;48.206;11.550;2022-11-25T06:39:01;2.97;;;2.20;;
6217;SDS011;3142;48.206;11.550;2022-11-25T06:41:28;4.20;;;2.43;;
6217;SDS011;3142;48.206;11.550;2022-11-25T06:43:56;2.93;;;2.50;;
6217;SDS011;3142;48.206;11.550;2022-11-25T06:46:22;3.47;;;2.23;;
6217;SDS011;3142;48.206;11.550;2022-11-25T06:48:49;6.73;;;1.97;;
6217;SDS011;3142;48.206;11.550;2022-11-25T06:51:15;7.00;;;3.13;;
6217;SDS011;3142;48.206;11.550;2022-11-25T06:53:42;2.47;;;2.03;;
6217;SDS011;3142;48.206;11.550;2022-11-25T06:56:10;4.50;;;2.47;;
6217;SDS011;3142;48.206;11.550;2022-11-25T06:58:38;4.03;;;2.23;;
6217;SDS011;3142;48.206;11.550;2022-11-25T07:01:07;5.87;;;2.47;;
6217;SDS011;3142;48.206;11.550;2022-11-25T07:03:38;5.57;;;3.03;;
6217;SDS011;3142;48.206;11.550;2022-11-25T07:06:05;8.17;;;2.43;;
6217;SDS011;3142;48.206;11.550;2022-11-25T07:08:32;3.20;;;2.40;;
6217;SDS011;3142;48.206;11.550;2022-11-25T07:11:01;4.90;;;2.43;;
6217;SDS011;3142;48.206;11.550;2022-11-25T07:13:29;4.07;;;1.93;;
6217;SDS011;3142;48.206;11.550;2022-11-25T07:15:58;2.80;;;1.90;;
6217;SDS011;3142;48.206;11.550;2022-11-25T07:18:28;5.03;;;2.37;;
6217;SDS011;3142;48.206;11.550;2022-11-25T07:21:00;6.50;;;3.30;;
6217;SDS011;3142;48.206;11.550;2022-11-25T07:23:27;5.27;;;3.47;;
6217;SDS011;3142;48.206;11.550;2022-11-25T07:25:54;5.87;;;2.93;;
6217;SDS011;3142;48.206;11.550;2022-11-25T07:28:20;7.93;;;3.90;;
6217;SDS011;3142;48.206;11.550;2022-11-25T07:30:46;5.23;;;3.13;;
6217;SDS011;3142;48.206;11.550;2022-11-25T07:33:13;5.03;;;2.60;;
6217;SDS011;3142;48.206;11.550;2022-11-25T07:35:41;8.00;;;4.40;;
6217;SDS011;3142;48.206;11.550;2022-11-25T07:38:07;7.83;;;3.63;;
6217;SDS011;3142;48.206;11.550;2022-11-25T07:40:34;3.67;;;2.50;;
6217;SDS011;3142;48.206;11.550;2022-11-25T07:43:00;4.60;;;2.60;;
6217;SDS011;3142;48.206;11.550;2022-11-25T07:45:27;3.47;;;2.33;;
6217;SDS011;3142;48.206;11.550;2022-11-25T07:47:53;5.27;;;2.60;;
6217;SDS011;3142;48.206;11.550;2022-11-25T07:50:20;6.10;;;3.23;;
6217;SDS011;3142;48.206;11.550;2022-11-25T07:52:48;5.53;;;2.00;;
6217;SDS011;3142;48.206;11.550;2022-11-25T07:55:14;4.47;;;2.53;;
6217;SDS011;3142;48.206;11.550;2022-11-25T07:57:41;9.73;;;6.33;;
6217;SDS011;3142;48.206;11.550;2022-11-25T08:00:08;14.00;;;7.57;;
6217;SDS011;3142;48.206;11.550;2022-11-25T08:02:35;11.43;;;5.27;;
6217;SDS011;3142;48.206;11.550;2022-11-25T08:05:02;12.33;;;6.37;;
6217;SDS011;3142;48.206;11.550;2022-11-25T08:07:28;6.63;;;4.33;;
6217;SDS011;3142;48.206;11.550;2022-11-25T08:09:56;4.97;;;3.40;;
6217;SDS011;3142;48.206;11.550;2022-11-25T08:12:22;10.57;;;3.43;;
6217;SDS011;3142;48.206;11.550;2022-11-25T08:14:49;5.90;;;3.57;;
6217;SDS011;3142;48.206;11.550;2022-11-25T08:17:15;4.20;;;3.00;;
6217;SDS011;3142;48.206;11.550;2022-11-25T08:19:42;4.10;;;2.97;;
6217;SDS011;3142;48.206;11.550;2022-11-25T08:22:08;8.83;;;3.17;;
6217;SDS011;3142;48.206;11.550;2022-11-25T08:24:35;5.10;;;2.60;;
6217;SDS011;3142;48.206;11.550;2022-11-25T08:27:03;4.77;;;2.73;;
6217;SDS011;3142;48.206;11.550;2022-11-25T08:29:29;5.20;;;2.80;;
6217;SDS011;3142;48.206;11.550;2022-11-25T08:31:56;7.27;;;2.93;;
6217;SDS011;3142;48.206;11.550;2022-11-25T08:34:23;4.10;;;2.73;;
6217;SDS011;3142;48.206;11.550;2022-11-25T08:36:50;6.73;;;2.77;;
6217;SDS011;3142;48.206;11.550;2022-11-25T08:39:18;6.83;;;3.13;;
6217;SDS011;3142;48.206;11.550;2022-11-25T08:41:46;4.63;;;3.53;;
6217;SDS011;3142;48.206;11.550;2022-11-25T08:44:14;5.63;;;3.60;;
6217;SDS011;3142;48.206;11.550;2022-11-25T08:46:41;6.07;;;3.40;;
6217;SDS011;3142;48.206;11.550;2022-11-25T08:49:08;5.20;;;3.63;;
6217;SDS011;3142;48.206;11.550;2022-11-25T08:51:37;9.50;;;3.83;;
6217;SDS011;3142;48.206;11.550;2022-11-25T08:54:04;8.70;;;3.70;;
6217;SDS011;3142;48.206;11.550;2022-11-25T08:56:32;5.33;;;3.83;;
6217;SDS011;3142;48.206;11.550;2022-11-25T08:58:59;7.27;;;4.40;;
6217;SDS011;3142;48.206;11.550;2022-11-25T09:01:27;10.27;;;5.10;;
6217;SDS011;3142;48.206;11.550;2022-11-25T09:03:55;9.73;;;5.80;;
6217;SDS011;3142;48.206;11.550;2022-11-25T09:06:23;8.63;;;4.93;;
6217;SDS011;3142;48.206;11.550;2022-11-25T09:08:52;5.90;;;3.63;;
6217;SDS011;3142;48.206;11.550;2022-11-25T09:11:20;5.00;;;3.83;;
6217;SDS011;3142;48.206;11.550;2022-11-25T09:13:47;17.60;;;11.37;;
6217;SDS011;3142;48.206;11.550;2022-11-25T09:16:13;32.10;;;18.07;;
6217;SDS011;3142;48.206;11.550;2022-11-25T09:18:41;17.07;;;10.87;;
6217;SDS011;3142;48.206;11.550;2022-11-25T09:21:10;10.47;;;5.90;;
6217;SDS011;3142;48.206;11.550;2022-11-25T09:23:38;4.07;;;3.10;;
6217;SDS011;3142;48.206;11.550;2022-11-25T09:26:05;5.83;;;3.30;;
6217;SDS011;3142;48.206;11.550;2022-11-25T09:28:32;4.93;;;2.73;;
6217;SDS011;3142;48.206;11.550;2022-11-25T09:31:04;4.27;;;2.67;;
6217;SDS011;3142;48.206;11.550;2022-11-25T09:33:31;4.00;;;2.20;;
6217;SDS011;3142;48.206;11.550;2022-11-25T09:35:59;4.23;;;2.47;;
6217;SDS011;3142;48.206;11.550;2022-11-25T09:38:26;3.63;;;2.83;;
6217;SDS011;3142;48.206;11.550;2022-11-25T09:40:53;3.33;;;2.40;;
6217;SDS011;3142;48.206;11.550;2022-11-25T09:43:28;3.07;;;2.23;;
6217;SDS011;3142;48.206;11.550;2022-11-25T09:46:21;5.93;;;2.37;;
6217;SDS011;3142;48.206;11.550;2022-11-25T09:49:17;4.53;;;2.43;;
6217;SDS011;3142;48.206;11.550;2022-11-25T09:51:56;3.40;;;2.50;;
6217;SDS011;3142;48.206;11.550;2022-11-25T09:54:29;4.23;;;2.47;;
6217;SDS011;3142;48.206;11.550;2022-11-25T09:57:02;2.87;;;2.50;;
6217;SDS011;3142;48.206;11.550;2022-11-25T09:59:38;4.57;;;2.47;;
6217;SDS011;3142;48.206;11.550;2022-11-25T10:02:11;4.30;;;3.00;;
6217;SDS011;3142;48.206;11.550;2022-11-25T10:04:45;3.87;;;2.30;;
6217;SDS011;3142;48.206;11.550;2022-11-25T10:07:20;2.73;;;2.33;;
6217;SDS011;3142;48.206;11.550;2022-11-25T10:09:52;3.70;;;2.27;;
6217;SDS011;3142;48.206;11.550;2022-11-25T10:12:20;16.90;;;10.67;;
6217;SDS011;3142;48.206;11.550;2022-11-25T10:14:53;10.37;;;7.53;;
6217;SDS011;3142;48.206;11.550;2022-11-25T10:17:26;2.67;;;2.30;;
6217;SDS011;3142;48.206;11.550;2022-11-25T10:19:59;4.23;;;2.87;;
6217;SDS011;3142;48.206;11.550;2022-11-25T10:22:33;2.33;;;2.00;;
6217;SDS011;3142;48.206;11.550;2022-11-25T10:25:04;5.87;;;2.33;;
6217;SDS011;3142;48.206;11.550;2022-11-25T10:27:40;4.10;;;2.03;;
6217;SDS011;3142;48.206;11.550;2022-11-25T10:30:12;5.60;;;2.60;;
6217;SDS011;3142;48.206;11.550;2022-11-25T10:32:42;6.23;;;2.87;;
6217;SDS011;3142;48.206;11.550;2022-11-25T10:35:16;6.93;;;2.70;;
6217;SDS011;3142;48.206;11.550;2022-11-25T10:37:50;4.97;;;2.00;;
6217;SDS011;3142;48.206;11.550;2022-11-25T10:40:19;5.27;;;2.80;;
6217;SDS011;3142;48.206;11.550;2022-11-25T10:42:46;5.73;;;2.53;;
6217;SDS011;3142;48.206;11.550;2022-11-25T10:45:13;4.60;;;2.27;;
6217;SDS011;3142;48.206;11.550;2022-11-25T10:47:46;4.67;;;2.30;;
6217;SDS011;3142;48.206;11.550;2022-11-25T10:50:24;2.40;;;2.10;;
6217;SDS011;3142;48.206;11.550;2022-11-25T10:53:01;5.23;;;2.77;;
6217;SDS011;3142;48.206;11.550;2022-11-25T10:55:36;5.10;;;3.10;;
6217;SDS011;3142;48.206;11.550;2022-11-25T10:58:20;3.30;;;1.97;;
6217;SDS011;3142;48.206;11.550;2022-11-25T11:01:00;5.60;;;1.87;;
6217;SDS011;3142;48.206;11.550;2022-11-25T11:03:29;2.47;;;2.03;;
6217;SDS011;3142;48.206;11.550;2022-11-25T11:05:56;5.03;;;2.97;;
6217;SDS011;3142;48.206;11.550;2022-11-25T11:08:25;4.30;;;1.57;;
6217;SDS011;3142;48.206;11.550;2022-11-25T11:13:56;3.17;;;2.13;;
6217;SDS011;3142;48.206;11.550;2022-11-25T11:16:28;2.77;;;1.40;;
6217;SDS011;3142;48.206;11.550;2022-11-25T11:18:57;2.83;;;1.60;;
6217;SDS011;3142;48.206;11.550;2022-11-25T11:21:27;3.33;;;1.63;;
6217;SDS011;3142;48.206;11.550;2022-11-25T11:23:57;3.77;;;1.53;;
6217;SDS011;3142;48.206;11.550;2022-11-25T11:26:25;2.07;;;1.40;;
6217;SDS011;3142;48.206;11.550;2022-11-25T11:28:57;2.80;;;2.00;;
6217;SDS011;3142;48.206;11.550;2022-11-25T11:31:28;2.57;;;1.63;;
6217;SDS011;3142;48.206;11.550;2022-11-25T11:34:00;2.63;;;1.57;;
6217;SDS011;3142;48.206;11.550;2022-11-25T11:36:33;1.43;;;1.33;;
6217;SDS011;3142;48.206;11.550;2022-11-25T11:39:18;1.43;;;1.33;;
6217;SDS011;3142;48.206;11.550;2022-11-25T11:41:54;3.00;;;1.73;;
6217;SDS011;3142;48.206;11.550;2022-11-25T11:44:30;1.70;;;1.57;;
6217;SDS011;3142;48.206;11.550;2022-11-25T11:47:10;3.70;;;1.67;;
6217;SDS011;3142;48.206;11.550;2022-11-25T11:49:52;3.03;;;1.70;;
6217;SDS011;3142;48.206;11.550;2022-11-25T11:52:30;3.13;;;1.90;;
6217;SDS011;3142;48.206;11.550;2022-11-25T11:55:13;1.90;;;1.30;;
6217;SDS011;3142;48.206;11.550;2022-11-25T11:57:52;6.03;;;1.70;;
6217;SDS011;3142;48.206;11.550;2022-11-25T12:00:26;3.30;;;1.50;;
6217;SDS011;3142;48.206;11.550;2022-11-25T12:02:58;2.17;;;1.30;;
6217;SDS011;3142;48.206;11.550;2022-11-25T12:05:30;1.30;;;1.10;;
6217;SDS011;3142;48.206;11.550;2022-11-25T12:08:02;2.33;;;1.20;;
6217;SDS011;3142;48.206;11.550;2022-11-25T12:10:37;2.87;;;1.23;;
6217;SDS011;3142;48.206;11.550;2022-11-25T12:13:11;1.60;;;1.27;;
6217;SDS011;3142;48.206;11.550;2022-11-25T12:15:45;1.83;;;1.33;;
6217;SDS011;3142;48.206;11.550;2022-11-25T12:18:18;1.70;;;1.20;;
6217;SDS011;3142;48.206;11.550;2022-11-25T12:20:53;5.93;;;1.37;;
6217;SDS011;3142;48.206;11.550;2022-11-25T12:23:25;3.60;;;2.40;;
6217;SDS011;3142;48.206;11.550;2022-11-25T12:26:01;3.10;;;1.77;;
6217;SDS011;3142;48.206;11.550;2022-11-25T12:28:34;3.10;;;2.00;;
6217;SDS011;3142;48.206;11.550;2022-11-25T12:31:10;3.17;;;1.33;;
6217;SDS011;3142;48.206;11.550;2022-11-25T12:33:42;4.53;;;1.43;;
6217;SDS011;3142;48.206;11.550;2022-11-25T12:36:17;3.17;;;1.83;;
6217;SDS011;3142;48.206;11.550;2022-11-25T12:38:50;2.17;;;1.33;;
6217;SDS011;3142;48.206;11.550;2022-11-25T12:41:23;2.10;;;1.30;;
6217;SDS011;3142;48.206;11.550;2022-11-25T12:43:56;3.23;;;1.37;;
6217;SDS011;3142;48.206;11.550;2022-11-25T12:46:27;2.53;;;1.70;;
6217;SDS011;3142;48.206;11.550;2022-11-25T12:48:58;3.10;;;1.90;;
6217;SDS011;3142;48.206;11.550;2022-11-25T12:51:30;3.40;;;2.17;;
6217;SDS011;3142;48.206;11.550;2022-11-25T12:54:14;4.03;;;2.57;;
6217;SDS011;3142;48.206;11.550;2022-11-25T12:57:04;3.47;;;1.97;;
6217;SDS011;3142;48.206;11.550;2022-11-25T12:59:52;2.00;;;1.27;;
6217;SDS011;3142;48.206;11.550;2022-11-25T13:02:34;3.97;;;1.67;;
6217;SDS011;3142;48.206;11.550;2022-11-25T13:08:37;3.70;;;1.77;;
6217;SDS011;3142;48.206;11.550;2022-11-25T13:11:23;1.90;;;1.43;;
6217;SDS011;3142;48.206;11.550;2022-11-25T13:14:11;2.50;;;1.40;;
6217;SDS011;3142;48.206;11.550;2022-11-25T13:16:45;3.73;;;1.80;;
6217;SDS011;3142;48.206;11.550;2022-11-25T13:19:14;1.77;;;1.30;;
6217;SDS011;3142;48.206;11.550;2022-11-25T13:21:54;3.77;;;1.87;;
6217;SDS011;3142;48.206;11.550;2022-11-25T13:24:31;2.67;;;1.83;;
6217;SDS011;3142;48.206;11.550;2022-11-25T13:26:59;2.27;;;1.53;;
6217;SDS011;3142;48.206;11.550;2022-11-25T13:32:32;4.20;;;2.17;;
6217;SDS011;3142;48.206;11.550;2022-11-25T13:38:05;3.07;;;1.50;;
6217;SDS011;3142;48.206;11.550;2022-11-25T13:40:37;3.13;;;2.03;;
6217;SDS011;3142;48.206;11.550;2022-11-25T13:43:04;2.83;;;1.90;;
6217;SDS011;3142;48.206;11.550;2022-11-25T13:45:46;4.33;;;1.70;;
6217;SDS011;3142;48.206;11.550;2022-11-25T13:48:14;3.10;;;1.87;;
6217;SDS011;3142;48.206;11.550;2022-11-25T13:50:43;4.83;;;1.93;;
6217;SDS011;3142;48.206;11.550;2022-11-25T13:53:17;3.83;;;2.00;;
6217;SDS011;3142;48.206;11.550;2022-11-25T13:55:47;3.27;;;1.77;;
6217;SDS011;3142;48.206;11.550;2022-11-25T13:58:19;3.10;;;1.40;;
6217;SDS011;3142;48.206;11.550;2022-11-25T14:01:03;3.00;;;1.67;;
6217;SDS011;3142;48.206;11.550;2022-11-25T14:03:46;6.97;;;2.07;;
6217;SDS011;3142;48.206;11.550;2022-11-25T14:06:29;4.23;;;2.20;;
6217;SDS011;3142;48.206;11.550;2022-11-25T14:09:08;7.60;;;4.30;;
6217;SDS011;3142;48.206;11.550;2022-11-25T14:11:48;4.47;;;3.13;;
6217;SDS011;3142;48.206;11.550;2022-11-25T14:14:44;8.50;;;5.43;;
6217;SDS011;3142;48.206;11.550;2022-11-25T14:17:28;31.43;;;18.50;;
6217;SDS011;3142;48.206;11.550;2022-11-25T14:20:20;48.50;;;29.30;;
6217;SDS011;3142;48.206;11.550;2022-11-25T14:23:01;8.00;;;5.50;;
6217;SDS011;3142;48.206;11.550;2022-11-25T14:25:45;3.37;;;2.50;;
6217;SDS011;3142;48.206;11.550;2022-11-25T14:28:19;6.13;;;2.23;;
6217;SDS011;3142;48.206;11.550;2022-11-25T14:30:53;3.20;;;2.10;;
6217;SDS011;3142;48.206;11.550;2022-11-25T14:33:28;3.87;;;2.40;;
6217;SDS011;3142;48.206;11.550;2022-11-25T14:35:59;3.07;;;1.87;;
6217;SDS011;3142;48.206;11.550;2022-11-25T14:38:35;3.93;;;2.20;;
6217;SDS011;3142;48.206;11.550;2022-11-25T14:41:06;3.47;;;2.30;;
6217;SDS011;3142;48.206;11.550;2022-11-25T14:43:37;6.50;;;2.87;;
6217;SDS011;3142;48.206;11.550;2022-11-25T14:46:08;7.17;;;3.43;;
6217;SDS011;3142;48.206;11.550;2022-11-25T14:48:37;39.00;;;24.90;;
6217;SDS011;3142;48.206;11.550;2022-11-25T14:51:04;30.73;;;22.10;;
6217;SDS011;3142;48.206;11.550;2022-11-25T14:53:36;10.70;;;6.93;;
6217;SDS011;3142;48.206;11.550;2022-11-25T14:56:05;10.00;;;5.23;;
6217;SDS011;3142;48.206;11.550;2022-11-25T14:58:32;8.83;;;6.17;;
6217;SDS011;3142;48.206;11.550;2022-11-25T15:01:00;11.87;;;8.23;;
6217;SDS011;3142;48.206;11.550;2022-11-25T15:03:30;9.73;;;6.73;;
6217;SDS011;3142;48.206;11.550;2022-11-25T15:05:59;9.10;;;5.90;;
6217;SDS011;3142;48.206;11.550;2022-11-25T15:08:35;8.73;;;5.27;;
6217;SDS011;3142;48.206;11.550;2022-11-25T15:11:04;6.90;;;4.83;;
6217;SDS011;3142;48.206;11.550;2022-11-25T15:13:38;11.73;;;6.50;;
6217;SDS011;3142;48.206;11.550;2022-11-25T15:16:09;14.13;;;7.57;;
6217;SDS011;3142;48.206;11.550;2022-11-25T15:18:39;15.00;;;8.40;;
6217;SDS011;3142;48.206;11.550;2022-11-25T15:21:14;12.33;;;6.47;;
6217;SDS011;3142;48.206;11.550;2022-11-25T15:23:44;23.80;;;14.27;;
6217;SDS011;3142;48.206;11.550;2022-11-25T15:26:15;21.80;;;11.47;;
6217;SDS011;3142;48.206;11.550;2022-11-25T15:28:43;15.67;;;9.87;;